createdAt,value
2023-01-12T16:51:35.112Z,0.30
2023-01-12T16:54:04.791Z,0.20
2023-01-12T16:56:35.127Z,0.20
2023-01-12T16:59:03.653Z,0.20
2023-01-12T17:01:32.485Z,0.30
2023-01-12T17:04:03.361Z,0.50
2023-01-12T17:06:32.061Z,0.20
2023-01-12T17:09:06.263Z,0.20
2023-01-12T17:11:36.406Z,0.30
2023-01-12T17:14:22.949Z,0.20
2023-01-12T17:16:53.036Z,0.20
2023-01-12T17:19:21.789Z,0.30
2023-01-12T17:21:54.889Z,0.30
2023-01-12T17:24:26.418Z,0.30
2023-01-12T17:27:01.874Z,0.30
2023-01-12T17:29:30.277Z,0.20
2023-01-12T17:32:04.520Z,0.20
2023-01-12T17:34:38.132Z,0.30
2023-01-12T17:37:08.875Z,0.30
2023-01-12T17:39:40.728Z,0.30
2023-01-12T17:42:30.711Z,0.30
2023-01-12T17:44:59.046Z,0.50
2023-01-12T17:47:27.231Z,0.60
2023-01-12T17:49:55.835Z,0.80
2023-01-12T17:52:24.271Z,1.40
2023-01-12T17:54:54.321Z,0.83
2023-01-12T17:57:22.497Z,1.00
2023-01-12T17:59:51.572Z,0.90
2023-01-12T18:02:19.979Z,0.80
2023-01-12T18:04:48.981Z,1.00
2023-01-12T18:07:18.797Z,0.60
2023-01-12T18:09:53.441Z,0.40
2023-01-12T18:12:24.919Z,0.40
2023-01-12T18:14:57.056Z,0.43
2023-01-12T18:17:25.618Z,0.40
2023-01-12T18:19:54.954Z,0.50
2023-01-12T18:22:24.881Z,1.10
2023-01-12T18:24:53.590Z,0.50
2023-01-12T18:27:25.514Z,0.90
2023-01-12T18:29:57.348Z,0.40
2023-01-12T18:32:26.375Z,0.40
